createdAt,value
2019-02-26T00:00:44.917Z,79.36
2019-02-26T00:01:50.463Z,79.66
2019-02-26T00:02:53.076Z,79.85
2019-02-26T00:03:58.606Z,79.93
2019-02-26T00:05:03.847Z,79.80
2019-02-26T00:06:10.660Z,79.56
2019-02-26T00:07:18.394Z,79.53
2019-02-26T00:08:24.614Z,79.97
2019-02-26T00:09:30.539Z,80.54
2019-02-26T00:10:36.446Z,81.31
2019-02-26T00:11:40.285Z,82.21
2019-02-26T00:12:46.095Z,82.80
2019-02-26T00:13:52.427Z,83.04
2019-02-26T00:15:00.207Z,82.50
2019-02-26T00:16:07.715Z,81.96
2019-02-26T00:17:11.197Z,81.82
2019-02-26T00:18:16.831Z,81.30
2019-02-26T00:19:21.576Z,81.08
2019-02-26T00:20:29.059Z,81.22
2019-02-26T00:21:33.136Z,81.26
2019-02-26T00:22:41.102Z,81.03
2019-02-26T00:23:46.659Z,81.09
2019-02-26T00:24:51.046Z,81.73
2019-02-26T00:25:56.977Z,82.08
2019-02-26T00:27:03.778Z,82.36
2019-02-26T00:28:08.899Z,82.08
2019-02-26T00:29:14.825Z,82.07
2019-02-26T00:30:20.751Z,82.42
2019-02-26T00:31:28.272Z,82.58
2019-02-26T00:32:33.883Z,82.61
2019-02-26T00:33:38.701Z,83.60
2019-02-26T00:34:44.628Z,84.48
2019-02-26T00:35:50.520Z,85.31
2019-02-26T00:36:57.331Z,86.08
2019-02-26T00:38:02.073Z,85.96
2019-02-26T00:39:07.367Z,86.75
2019-02-26T00:40:14.661Z,86.80
2019-02-26T00:41:20.726Z,86.86
2019-02-26T00:42:26.360Z,86.75
2019-02-26T00:43:32.350Z,86.54
2019-02-26T00:44:37.310Z,86.38
2019-02-26T00:45:42.773Z,86.50
2019-02-26T00:46:48.722Z,86.71
2019-02-26T00:47:54.664Z,86.42
2019-02-26T00:49:01.437Z,86.27
2019-02-26T00:50:07.378Z,86.36
2019-02-26T00:51:11.814Z,86.30
2019-02-26T00:52:18.660Z,87.06
2019-02-26T00:53:25.975Z,87.60
2019-02-26T00:54:31.977Z,88.05
2019-02-26T00:55:37.953Z,87.64
2019-02-26T00:56:42.526Z,88.36
2019-02-26T00:57:48.466Z,88.69
2019-02-26T00:58:54.425Z,89.66
2019-02-26T01:00:02.861Z,90.15
2019-02-26T01:01:08.217Z,90.33
2019-02-26T01:02:12.321Z,91.43
2019-02-26T01:03:18.294Z,92.15
2019-02-26T01:04:24.226Z,92.21
2019-02-26T01:05:30.170Z,92.12
2019-02-26T01:06:36.083Z,92.00
2019-02-26T01:07:44.256Z,91.68
2019-02-26T01:08:48.139Z,91.36
2019-02-26T01:09:54.701Z,91.33
2019-02-26T01:11:02.082Z,91.17
2019-02-26T01:12:06.561Z,90.44
2019-02-26T01:13:11.691Z,89.98
2019-02-26T01:14:18.594Z,89.93
2019-02-26T01:15:22.469Z,89.88
2019-02-26T01:16:28.410Z,89.83
2019-02-26T01:17:35.752Z,89.68
2019-02-26T01:18:42.078Z,89.87
2019-02-26T01:19:46.252Z,89.45
2019-02-26T01:20:52.669Z,89.91
2019-02-26T01:21:58.798Z,90.49
2019-02-26T01:23:04.392Z,91.49
2019-02-26T01:24:10.026Z,91.33
2019-02-26T01:25:17.664Z,91.32
2019-02-26T01:26:21.224Z,91.03
2019-02-26T01:27:27.149Z,91.01
2019-02-26T01:28:33.112Z,90.03
2019-02-26T01:29:39.037Z,89.60
2019-02-26T01:30:44.973Z,88.91
2019-02-26T01:31:50.915Z,88.51
2019-02-26T01:32:58.166Z,88.62
2019-02-26T01:34:02.859Z,89.23
2019-02-26T01:35:10.683Z,90.24
2019-02-26T01:36:16.109Z,89.94
2019-02-26T01:37:20.343Z,90.03
2019-02-26T01:38:26.321Z,90.14
2019-02-26T01:39:32.282Z,89.73
2019-02-26T01:40:41.501Z,89.42
2019-02-26T01:41:46.044Z,88.74
2019-02-26T01:42:52.402Z,88.60
2019-02-26T01:43:55.804Z,89.20
2019-02-26T01:45:01.703Z,89.47
2019-02-26T01:46:09.436Z,89.71
2019-02-26T01:47:13.625Z,89.30
2019-02-26T01:48:19.586Z,89.49
2019-02-26T01:49:26.602Z,90.15
2019-02-26T01:50:33.234Z,90.22
2019-02-26T01:51:37.547Z,90.50
2019-02-26T01:52:43.487Z,90.93
2019-02-26T01:53:51.428Z,90.85
2019-02-26T01:54:55.848Z,90.95
2019-02-26T01:56:04.570Z,91.16
2019-02-26T01:57:09.158Z,91.41
2019-02-26T01:58:15.903Z,91.64
2019-02-26T01:59:19.359Z,90.99
2019-02-26T02:00:25.995Z,89.94
2019-02-26T02:01:30.234Z,88.96
2019-02-26T02:02:36.135Z,88.19
2019-02-26T02:03:41.727Z,87.64
2019-02-26T02:04:47.744Z,87.08
2019-02-26T02:05:54.843Z,86.85
2019-02-26T02:07:01.410Z,87.59
2019-02-26T02:08:09.051Z,88.38
2019-02-26T02:09:13.583Z,88.88
2019-02-26T02:10:16.698Z,89.51
2019-02-26T02:11:23.733Z,90.63
2019-02-26T02:12:30.116Z,91.71
2019-02-26T02:13:35.860Z,92.16
2019-02-26T02:14:40.516Z,93.16
2019-02-26T02:15:46.586Z,93.24
2019-02-26T02:16:52.411Z,93.53
2019-02-26T02:17:59.590Z,93.67
2019-02-26T02:19:03.796Z,94.21
2019-02-26T02:20:10.987Z,93.72
2019-02-26T02:21:15.734Z,93.10
2019-02-26T02:22:21.415Z,93.22
2019-02-26T02:23:28.033Z,93.61
2019-02-26T02:24:33.258Z,93.70
2019-02-26T02:25:40.886Z,93.59
2019-02-26T02:26:49.788Z,93.55
2019-02-26T02:27:52.499Z,93.32
2019-02-26T02:28:57.558Z,93.48
2019-02-26T02:30:03.138Z,93.54
2019-02-26T02:31:08.767Z,93.45
2019-02-26T02:32:14.659Z,92.45
2019-02-26T02:33:24.039Z,91.43
2019-02-26T02:34:29.259Z,90.98
2019-02-26T02:35:32.309Z,90.87
2019-02-26T02:36:38.279Z,90.83
2019-02-26T02:37:44.170Z,90.75
2019-02-26T02:38:50.087Z,91.16
2019-02-26T02:39:56.067Z,91.59
2019-02-26T02:41:02.010Z,91.84
2019-02-26T02:42:08.371Z,92.54
2019-02-26T02:43:16.108Z,93.22
2019-02-26T02:44:20.576Z,94.38
2019-02-26T02:45:25.526Z,94.87
2019-02-26T02:46:31.547Z,94.83
2019-02-26T02:47:38.794Z,94.79
2019-02-26T02:48:43.444Z,94.39
2019-02-26T02:49:49.371Z,94.16
2019-02-26T02:50:55.355Z,94.02
2019-02-26T02:52:02.035Z,94.16
2019-02-26T02:53:07.247Z,94.34
2019-02-26T02:54:15.455Z,94.67
2019-02-26T02:55:19.435Z,94.26
2019-02-26T02:56:25.138Z,94.38
2019-02-26T02:57:32.637Z,94.68
2019-02-26T02:58:38.543Z,94.64
2019-02-26T02:59:43.029Z,94.48
2019-02-26T03:00:51.599Z,94.17
2019-02-26T03:01:57.000Z,93.21
2019-02-26T03:03:01.834Z,92.96
2019-02-26T03:04:07.872Z,93.15
2019-02-26T03:05:13.926Z,92.84
2019-02-26T03:06:20.439Z,92.71
2019-02-26T03:07:27.471Z,92.16
2019-02-26T03:08:32.478Z,91.07
2019-02-26T03:09:40.531Z,90.40
2019-02-26T03:10:45.425Z,89.94
2019-02-26T03:11:53.020Z,89.69
2019-02-26T03:13:00.105Z,89.80
2019-02-26T03:14:05.673Z,90.23
2019-02-26T03:15:16.074Z,91.08
2019-02-26T03:16:23.926Z,91.67
2019-02-26T03:17:27.557Z,91.67
2019-02-26T03:18:33.457Z,91.58
2019-02-26T03:19:41.516Z,91.52
2019-02-26T03:20:46.522Z,91.33
2019-02-26T03:21:52.991Z,91.33
2019-02-26T03:22:58.466Z,92.11
2019-02-26T03:24:06.120Z,92.59
2019-02-26T03:25:11.764Z,92.01
2019-02-26T03:26:18.360Z,91.47
2019-02-26T03:27:23.717Z,89.96
2019-02-26T03:28:34.894Z,89.36
2019-02-26T03:29:36.575Z,88.96
2019-02-26T03:30:44.476Z,88.85
2019-02-26T03:31:54.823Z,89.79
2019-02-26T03:33:00.330Z,90.26
2019-02-26T03:34:08.851Z,90.13
2019-02-26T03:35:07.402Z,90.27
2019-02-26T03:36:14.135Z,90.47
2019-02-26T03:37:18.391Z,91.16
2019-02-26T03:38:26.431Z,91.80
2019-02-26T03:39:30.302Z,92.19
2019-02-26T03:40:36.144Z,93.63
2019-02-26T03:41:43.257Z,94.43
2019-02-26T03:42:47.906Z,94.97
2019-02-26T03:43:54.443Z,95.62
2019-02-26T03:44:59.621Z,95.60
2019-02-26T03:46:05.381Z,95.33
2019-02-26T03:47:11.285Z,94.95
2019-02-26T03:48:20.379Z,94.50
2019-02-26T03:49:27.127Z,94.74
2019-02-26T03:50:30.093Z,95.31
2019-02-26T03:51:39.143Z,96.00
2019-02-26T03:52:41.637Z,97.19
2019-02-26T03:53:47.648Z,97.64
2019-02-26T03:54:53.650Z,96.94
2019-02-26T03:56:01.993Z,96.04
2019-02-26T03:57:04.512Z,95.37
2019-02-26T03:58:10.420Z,94.97
2019-02-26T03:59:16.368Z,95.11
2019-02-26T04:00:23.387Z,95.15
2019-02-26T04:01:28.949Z,95.46
2019-02-26T04:02:37.429Z,96.18
2019-02-26T04:03:42.514Z,96.35
2019-02-26T04:04:51.714Z,95.84
2019-02-26T04:05:51.858Z,95.53
2019-02-26T04:06:58.475Z,96.36
2019-02-26T04:08:04.491Z,96.73
2019-02-26T04:09:10.896Z,97.76
2019-02-26T04:10:14.083Z,98.02
2019-02-26T04:11:22.111Z,97.61
2019-02-26T04:12:26.242Z,98.21
2019-02-26T04:13:32.186Z,98.81
2019-02-26T04:14:38.109Z,99.00
2019-02-26T04:15:44.144Z,99.09
2019-02-26T04:16:50.105Z,99.68
2019-02-26T04:17:56.041Z,99.76
2019-02-26T04:19:01.950Z,99.71
2019-02-26T04:20:07.181Z,99.28
2019-02-26T04:21:17.652Z,98.70
2019-02-26T04:22:26.180Z,98.11
2019-02-26T04:23:30.148Z,97.69
2019-02-26T04:24:37.993Z,97.42
2019-02-26T04:27:30.693Z,96.82
2019-02-26T04:28:40.422Z,96.72
2019-02-26T04:29:46.737Z,96.38
2019-02-26T04:32:36.448Z,96.29
2019-02-26T04:33:48.094Z,96.22
2019-02-26T04:34:54.515Z,95.60
2019-02-26T04:38:20.770Z,95.99
2019-02-26T04:39:47.516Z,96.65
2019-02-26T04:40:50.503Z,97.28
2019-02-26T04:42:09.399Z,98.04
2019-02-26T04:45:02.283Z,98.74
2019-02-26T04:46:25.562Z,98.04
2019-02-26T04:47:33.631Z,96.98
2019-02-26T04:48:36.577Z,96.69
2019-02-26T04:49:43.054Z,96.79
2019-02-26T04:50:48.310Z,96.91
2019-02-26T04:51:53.929Z,97.28
2019-02-26T04:53:04.424Z,97.52
2019-02-26T04:54:05.406Z,97.53
2019-02-26T04:55:11.019Z,97.44
2019-02-26T04:56:17.080Z,97.25
2019-02-26T04:57:22.648Z,97.35
2019-02-26T04:58:28.606Z,97.56
2019-02-26T04:59:34.944Z,98.01
2019-02-26T05:00:40.224Z,98.80
2019-02-26T05:01:47.229Z,99.23
2019-02-26T05:02:51.419Z,99.47
2019-02-26T05:03:57.037Z,99.11
2019-02-26T05:05:02.602Z,99.29
2019-02-26T05:06:10.652Z,99.26
2019-02-26T05:07:17.295Z,99.42
2019-02-26T05:08:21.726Z,99.33
2019-02-26T05:09:29.788Z,98.94
2019-02-26T05:10:34.342Z,98.56
2019-02-26T05:11:40.766Z,98.31
2019-02-26T05:12:45.904Z,98.37
2019-02-26T05:13:51.858Z,98.75
2019-02-26T05:14:57.773Z,99.23
2019-02-26T05:16:04.624Z,98.82
2019-02-26T05:17:11.318Z,98.69
2019-02-26T05:18:17.715Z,98.95
2019-02-26T05:19:24.370Z,99.21
2019-02-26T05:20:31.255Z,99.51
2019-02-26T05:21:36.171Z,99.24
2019-02-26T05:22:41.198Z,98.70
2019-02-26T05:23:49.359Z,98.71
2019-02-26T05:24:53.346Z,98.96
2019-02-26T05:26:05.224Z,99.00
2019-02-26T05:27:12.454Z,98.97
2019-02-26T05:28:17.639Z,99.10
2019-02-26T05:29:22.803Z,98.50
2019-02-26T05:30:28.776Z,98.91
2019-02-26T05:31:37.305Z,98.96
2019-02-26T05:32:40.741Z,98.67
2019-02-26T05:33:47.653Z,98.69
2019-02-26T05:34:52.758Z,98.68
2019-02-26T05:35:58.654Z,98.62
2019-02-26T05:37:05.462Z,99.07
2019-02-26T05:38:10.551Z,99.18
2019-02-26T05:39:20.417Z,99.06
2019-02-26T05:40:22.503Z,99.33
2019-02-26T05:41:28.479Z,98.99
2019-02-26T05:42:34.470Z,98.53
2019-02-26T05:43:40.384Z,98.48
2019-02-26T05:44:46.340Z,98.86
2019-02-26T05:45:54.882Z,98.46
2019-02-26T05:46:58.784Z,98.39
2019-02-26T05:48:04.282Z,98.52
2019-02-26T05:49:13.552Z,98.15
2019-02-26T05:50:16.785Z,97.13
2019-02-26T05:51:24.421Z,96.58
2019-02-26T05:52:30.636Z,96.43
2019-02-26T05:53:34.235Z,96.66
2019-02-26T05:54:40.198Z,96.98
2019-02-26T05:55:48.535Z,97.45
2019-02-26T05:56:52.143Z,97.48
2019-02-26T05:57:58.103Z,96.64
2019-02-26T05:59:06.841Z,97.02
2019-02-26T06:00:13.434Z,97.36
2019-02-26T06:01:18.507Z,97.34
2019-02-26T06:02:23.887Z,97.80
2019-02-26T06:03:27.228Z,97.92
2019-02-26T06:04:35.177Z,98.33
2019-02-26T06:05:43.417Z,98.62
2019-02-26T06:06:45.025Z,98.74
2019-02-26T06:07:54.844Z,98.64
2019-02-26T06:09:03.110Z,98.23
2019-02-26T06:10:07.318Z,98.37
2019-02-26T06:11:13.251Z,98.62
2019-02-26T06:12:19.243Z,99.00
2019-02-26T06:13:25.139Z,98.63
2019-02-26T06:14:33.260Z,98.51
2019-02-26T06:15:37.037Z,99.02
2019-02-26T06:16:43.678Z,99.43
2019-02-26T06:17:50.841Z,99.50
2019-02-26T06:18:54.777Z,99.42
2019-02-26T06:21:32.966Z,98.84
2019-02-26T06:22:38.897Z,99.12
2019-02-26T06:23:44.179Z,99.33
2019-02-26T06:24:50.052Z,99.34
2019-02-26T06:25:58.115Z,99.01
2019-02-26T06:27:01.926Z,97.93
2019-02-26T06:28:10.566Z,97.01
2019-02-26T06:29:13.799Z,96.08
2019-02-26T06:30:19.439Z,95.57
2019-02-26T06:31:25.389Z,95.55
2019-02-26T06:32:32.820Z,94.90
2019-02-26T06:33:38.451Z,95.22
2019-02-26T06:34:42.585Z,95.22
2019-02-26T06:35:48.555Z,95.70
2019-02-26T06:36:53.811Z,96.04
2019-02-26T06:38:01.981Z,95.51
2019-02-26T06:39:06.020Z,94.84
2019-02-26T06:40:10.283Z,94.29
2019-02-26T06:41:16.300Z,94.30
2019-02-26T06:42:22.268Z,94.62
2019-02-26T06:43:27.835Z,93.88
2019-02-26T06:44:33.757Z,93.20
2019-02-26T06:45:41.249Z,93.06
2019-02-26T06:46:45.741Z,93.13
2019-02-26T06:47:53.962Z,92.94
2019-02-26T06:48:57.620Z,93.40
2019-02-26T06:50:05.544Z,93.32
2019-02-26T06:51:08.899Z,93.95
2019-02-26T06:52:16.288Z,94.47
2019-02-26T06:53:21.548Z,94.72
2019-02-26T06:54:28.925Z,94.75
2019-02-26T06:55:32.679Z,94.96
2019-02-26T06:56:43.285Z,94.51
2019-02-26T06:57:46.363Z,94.15
2019-02-26T06:58:51.702Z,93.95
2019-02-26T07:00:00.665Z,94.64
2019-02-26T07:01:03.557Z,94.98
2019-02-26T07:02:11.024Z,95.65
2019-02-26T07:03:16.309Z,96.29
2019-02-26T07:04:22.222Z,96.55
2019-02-26T07:05:28.150Z,95.99
2019-02-26T07:06:34.890Z,96.13
2019-02-26T07:07:40.090Z,95.68
2019-02-26T07:08:47.220Z,95.63
2019-02-26T07:09:51.925Z,95.51
2019-02-26T07:10:57.946Z,95.58
2019-02-26T07:12:03.616Z,95.15
2019-02-26T07:13:11.835Z,93.63
2019-02-26T07:14:15.466Z,92.57
2019-02-26T07:15:21.065Z,92.36
2019-02-26T07:16:26.977Z,92.42
2019-02-26T07:17:34.325Z,92.69
2019-02-26T07:18:38.526Z,92.05
2019-02-26T07:19:44.505Z,91.46
2019-02-26T07:20:52.587Z,91.34
2019-02-26T07:21:56.382Z,91.49
2019-02-26T07:23:03.903Z,92.44
2019-02-26T07:24:08.331Z,93.46
2019-02-26T07:25:16.451Z,93.99
2019-02-26T07:26:20.889Z,94.01
2019-02-26T07:27:26.486Z,94.33
2019-02-26T07:28:32.059Z,94.71
2019-02-26T07:29:40.130Z,94.57
2019-02-26T07:30:44.715Z,94.67
2019-02-26T07:31:51.715Z,94.67
2019-02-26T07:32:55.853Z,94.03
2019-02-26T07:34:03.202Z,93.39
2019-02-26T07:35:08.710Z,92.41
2019-02-26T07:36:13.008Z,92.81
2019-02-26T07:37:18.932Z,92.35
2019-02-26T07:38:25.183Z,92.03
2019-02-26T07:39:30.869Z,91.88
2019-02-26T07:40:38.629Z,90.94
2019-02-26T07:41:44.515Z,90.97
2019-02-26T07:42:49.188Z,90.79
2019-02-26T07:43:54.854Z,90.62
2019-02-26T07:45:00.774Z,90.63
2019-02-26T07:46:06.669Z,90.45
2019-02-26T07:47:12.597Z,89.67
2019-02-26T07:48:21.098Z,89.91
2019-02-26T07:49:24.451Z,88.91
2019-02-26T07:50:34.175Z,88.36
2019-02-26T07:51:38.061Z,87.90
2019-02-26T07:52:42.032Z,87.80
2019-02-26T07:53:50.635Z,86.35
2019-02-26T07:54:54.046Z,85.24
2019-02-26T07:56:01.792Z,84.29
2019-02-26T07:57:05.563Z,84.26
2019-02-26T07:58:15.587Z,83.78
2019-02-26T07:59:27.449Z,83.22
2019-02-26T08:00:25.297Z,83.15
2019-02-26T08:01:31.254Z,82.40
2019-02-26T08:02:37.373Z,82.15
2019-02-26T08:03:46.401Z,81.51
2019-02-26T08:04:50.335Z,80.38
2019-02-26T08:05:56.993Z,79.45
2019-02-26T08:07:03.739Z,78.74
2019-02-26T08:08:09.798Z,78.25
2019-02-26T08:09:17.006Z,78.37
2019-02-26T08:10:20.915Z,77.78
2019-02-26T08:11:26.865Z,77.07
2019-02-26T08:12:35.121Z,76.68
2019-02-26T08:13:38.772Z,77.07
2019-02-26T08:14:46.026Z,76.69
2019-02-26T08:15:50.599Z,75.75
2019-02-26T08:16:58.664Z,74.90
2019-02-26T08:18:03.460Z,74.27
2019-02-26T08:19:08.398Z,73.55
2019-02-26T08:20:14.846Z,73.52
2019-02-26T08:21:21.723Z,73.17
2019-02-26T08:22:27.522Z,73.13
2019-02-26T08:23:31.486Z,72.83
2019-02-26T08:24:37.382Z,72.20
2019-02-26T08:25:43.308Z,72.17
2019-02-26T08:26:50.056Z,71.97
2019-02-26T08:27:58.340Z,71.33
2019-02-26T08:29:03.417Z,70.32
2019-02-26T08:30:07.555Z,69.56
2019-02-26T08:31:15.418Z,68.93
2019-02-26T08:32:21.051Z,68.42
2019-02-26T08:33:25.173Z,67.21
2019-02-26T08:34:31.086Z,67.27
2019-02-26T08:35:36.986Z,67.90
2019-02-26T08:36:46.181Z,67.38
2019-02-26T08:37:48.889Z,67.01
2019-02-26T08:38:57.109Z,67.27
2019-02-26T08:40:02.313Z,67.22
2019-02-26T08:41:08.251Z,65.96
2019-02-26T08:42:14.242Z,65.71
2019-02-26T08:43:20.012Z,64.46
2019-02-26T08:44:28.079Z,64.85
2019-02-26T08:45:31.518Z,65.30
2019-02-26T08:46:39.655Z,64.72
2019-02-26T08:47:43.736Z,64.52
2019-02-26T08:48:50.795Z,65.58
2019-02-26T08:49:56.116Z,65.57
2019-02-26T08:51:05.382Z,65.30
2019-02-26T08:52:08.047Z,65.77
2019-02-26T08:53:13.937Z,65.41
2019-02-26T08:54:21.152Z,64.83
2019-02-26T08:55:25.831Z,63.22
2019-02-26T08:56:35.811Z,62.97
2019-02-26T08:57:37.769Z,63.54
2019-02-26T08:58:45.353Z,64.10
2019-02-26T08:59:50.433Z,64.45
2019-02-26T09:00:55.559Z,63.58
2019-02-26T09:02:01.473Z,62.94
2019-02-26T09:03:08.805Z,62.74
2019-02-26T09:04:14.508Z,61.07
2019-02-26T09:05:19.010Z,60.36
2019-02-26T09:06:24.977Z,60.32
2019-02-26T09:07:30.917Z,59.79
2019-02-26T09:08:38.572Z,60.34
2019-02-26T09:09:44.612Z,60.96
2019-02-26T09:10:48.922Z,60.41
2019-02-26T09:11:55.906Z,60.35
2019-02-26T09:13:00.806Z,60.39
2019-02-26T09:14:09.035Z,59.28
2019-02-26T09:15:15.736Z,58.36
2019-02-26T09:16:21.782Z,57.87
2019-02-26T09:17:26.928Z,58.13
2019-02-26T09:18:35.514Z,58.45
2019-02-26T09:19:38.111Z,58.06
2019-02-26T09:20:43.565Z,58.38
2019-02-26T09:21:50.540Z,58.32
2019-02-26T09:22:56.393Z,58.08
2019-02-26T09:24:04.233Z,58.66
2019-02-26T09:25:06.873Z,58.37
2019-02-26T09:26:12.800Z,57.62
2019-02-26T09:27:18.749Z,57.43
2019-02-26T09:28:25.341Z,57.50
2019-02-26T09:29:31.451Z,57.30
2019-02-26T09:30:38.398Z,56.95
2019-02-26T09:31:42.785Z,58.00
2019-02-26T09:32:48.745Z,57.14
2019-02-26T09:33:54.631Z,57.44
2019-02-26T09:35:03.903Z,57.40
2019-02-26T09:36:10.481Z,57.69
2019-02-26T09:37:13.441Z,58.59
2019-02-26T09:38:22.495Z,57.18
2019-02-26T09:39:27.026Z,55.16
2019-02-26T09:40:34.269Z,55.54
2019-02-26T09:41:38.574Z,54.59
2019-02-26T09:42:43.948Z,52.00
2019-02-26T09:43:48.952Z,53.50
2019-02-26T09:44:55.418Z,54.56
2019-02-26T09:46:00.198Z,54.31
2019-02-26T09:47:07.580Z,53.42
2019-02-26T09:48:12.966Z,53.21
2019-02-26T09:49:18.036Z,52.30
2019-02-26T09:50:23.927Z,52.21
2019-02-26T09:51:31.059Z,53.35
2019-02-26T09:52:37.171Z,53.86
2019-02-26T09:53:43.134Z,52.14
2019-02-26T09:54:51.119Z,51.31
2019-02-26T09:55:55.080Z,52.31
2019-02-26T09:57:00.999Z,52.67
2019-02-26T09:58:06.937Z,51.72
2019-02-26T09:59:14.669Z,51.69
2019-02-26T10:00:22.030Z,50.95
2019-02-26T10:01:24.082Z,50.99
2019-02-26T10:02:30.005Z,52.17
2019-02-26T10:03:38.948Z,53.49
2019-02-26T10:04:42.493Z,51.54
2019-02-26T10:05:50.087Z,51.38
2019-02-26T10:06:53.587Z,51.38
2019-02-26T10:08:02.152Z,51.98
2019-02-26T10:09:04.804Z,50.58
2019-02-26T10:10:13.656Z,49.99
2019-02-26T10:11:18.484Z,50.89
2019-02-26T10:12:23.403Z,50.61
2019-02-26T10:13:29.499Z,50.24
2019-02-26T10:14:36.577Z,50.30
2019-02-26T10:15:42.758Z,49.66
2019-02-26T10:16:50.084Z,49.71
2019-02-26T10:17:53.620Z,50.07
2019-02-26T10:18:59.542Z,49.18
2019-02-26T10:20:22.747Z,48.50
2019-02-26T10:21:26.573Z,46.78
2019-02-26T10:22:33.145Z,47.36
2019-02-26T10:23:38.484Z,48.87
2019-02-26T10:24:44.450Z,47.91
2019-02-26T10:25:53.003Z,47.13
2019-02-26T10:26:58.733Z,48.47
2019-02-26T10:28:05.761Z,48.52
2019-02-26T10:29:08.228Z,47.43
2019-02-26T10:30:16.735Z,47.23
2019-02-26T10:31:24.794Z,45.95
2019-02-26T10:32:28.745Z,44.77
2019-02-26T10:33:40.166Z,45.48
2019-02-26T10:34:43.157Z,45.72
2019-02-26T10:35:49.882Z,45.33
2019-02-26T10:36:54.978Z,44.35
2019-02-26T10:38:05.131Z,43.59
2019-02-26T10:39:07.496Z,43.71
2019-02-26T10:40:14.003Z,44.29
2019-02-26T10:41:17.992Z,43.49
2019-02-26T10:42:24.024Z,44.34
2019-02-26T10:43:29.943Z,43.82
2019-02-26T10:44:35.989Z,44.81
2019-02-26T10:45:44.292Z,43.58
2019-02-26T10:46:47.283Z,44.46
2019-02-26T10:47:54.188Z,42.13
2019-02-26T10:48:58.483Z,42.45
2019-02-26T10:50:03.841Z,43.02
2019-02-26T10:51:09.624Z,42.18
2019-02-26T10:52:16.850Z,41.82
2019-02-26T10:53:22.771Z,41.34
2019-02-26T10:54:30.955Z,42.45
2019-02-26T10:55:38.574Z,42.82
2019-02-26T10:56:42.544Z,41.84
2019-02-26T10:57:48.483Z,41.96
2019-02-26T10:58:57.331Z,42.80
2019-02-26T11:00:02.583Z,41.23
2019-02-26T11:01:05.646Z,38.48
2019-02-26T11:02:11.256Z,38.08
2019-02-26T11:03:17.422Z,37.79
2019-02-26T11:04:22.803Z,37.26
2019-02-26T11:05:28.357Z,36.73
2019-02-26T11:06:38.303Z,36.86
2019-02-26T11:07:40.267Z,37.28
2019-02-26T11:08:47.539Z,38.29
2019-02-26T11:09:53.626Z,37.71
2019-02-26T11:10:58.124Z,37.99
2019-02-26T11:12:06.361Z,37.86
2019-02-26T11:13:12.432Z,38.91
2019-02-26T11:14:17.361Z,39.04
2019-02-26T11:15:23.824Z,39.72
2019-02-26T11:16:28.870Z,38.36
2019-02-26T11:17:33.813Z,38.86
2019-02-26T11:18:40.680Z,39.24
2019-02-26T11:19:45.735Z,37.92
2019-02-26T11:20:55.262Z,38.00
2019-02-26T11:21:58.683Z,37.37
2019-02-26T11:23:06.003Z,37.25
2019-02-26T11:24:11.202Z,38.65
2019-02-26T11:25:17.931Z,38.43
2019-02-26T11:26:21.046Z,37.01
2019-02-26T11:27:26.931Z,38.47
2019-02-26T11:28:36.214Z,37.05
2019-02-26T11:29:40.647Z,35.75
2019-02-26T11:30:46.459Z,36.49
2019-02-26T11:31:50.661Z,35.54
2019-02-26T11:33:02.227Z,35.42
2019-02-26T11:34:04.081Z,34.43
2019-02-26T11:35:08.397Z,34.63
2019-02-26T11:36:15.726Z,35.40
2019-02-26T11:37:22.398Z,36.11
2019-02-26T11:38:25.905Z,34.86
2019-02-26T11:39:31.803Z,34.96
2019-02-26T11:40:37.718Z,35.77
2019-02-26T11:41:43.658Z,34.21
2019-02-26T11:42:51.127Z,34.33
2019-02-26T11:43:55.359Z,36.03
2019-02-26T11:45:01.378Z,35.23
2019-02-26T11:46:08.684Z,34.96
2019-02-26T11:47:13.696Z,33.36
2019-02-26T11:48:20.662Z,32.07
2019-02-26T11:49:24.511Z,32.10
2019-02-26T11:50:30.419Z,31.49
2019-02-26T11:51:37.351Z,31.33
2019-02-26T11:52:41.968Z,31.36
2019-02-26T11:53:47.943Z,31.95
2019-02-26T11:54:53.851Z,31.81
2019-02-26T11:56:01.869Z,31.63
2019-02-26T11:57:07.420Z,29.82
2019-02-26T11:58:15.430Z,30.41
2019-02-26T11:59:19.510Z,32.10
2019-02-26T12:00:25.875Z,32.24
2019-02-26T12:01:32.206Z,32.65
2019-02-26T12:02:39.241Z,33.12
2019-02-26T12:03:43.950Z,32.85
2019-02-26T12:04:49.175Z,32.18
2019-02-26T12:05:56.687Z,32.86
2019-02-26T12:07:01.829Z,31.48
2019-02-26T12:08:06.998Z,31.64
2019-02-26T12:09:14.243Z,30.72
2019-02-26T12:10:18.938Z,30.72
2019-02-26T12:11:24.830Z,31.54
2019-02-26T12:12:31.165Z,31.07
2019-02-26T12:13:36.719Z,31.71
2019-02-26T12:14:43.890Z,30.19
2019-02-26T12:15:48.708Z,30.38
2019-02-26T12:16:54.638Z,30.06
2019-02-26T12:18:00.559Z,30.45
2019-02-26T12:19:08.744Z,30.19
2019-02-26T12:20:17.685Z,30.27
2019-02-26T12:21:22.024Z,29.86
2019-02-26T12:22:29.625Z,29.86
2019-02-26T12:23:34.908Z,30.23
2019-02-26T12:24:39.929Z,29.41
2019-02-26T12:25:47.121Z,30.33
2019-02-26T12:26:52.413Z,32.25
2019-02-26T12:27:57.397Z,31.59
2019-02-26T12:29:04.410Z,31.28
2019-02-26T12:30:13.790Z,30.68
2019-02-26T12:31:19.044Z,30.00
2019-02-26T12:32:26.989Z,29.53
2019-02-26T12:33:32.464Z,29.71
2019-02-26T12:34:38.569Z,29.69
2019-02-26T12:35:43.685Z,31.26
2019-02-26T12:36:51.226Z,30.54
2019-02-26T12:37:56.660Z,30.89
2019-02-26T12:39:02.410Z,31.01
2019-02-26T12:40:06.206Z,31.66
2019-02-26T12:41:15.595Z,31.42
2019-02-26T12:42:18.718Z,32.45
2019-02-26T12:43:24.084Z,32.14
2019-02-26T12:44:31.912Z,32.46
2019-02-26T12:45:38.673Z,32.71
2019-02-26T12:46:42.019Z,32.22
2019-02-26T12:47:49.372Z,32.77
2019-02-26T12:48:53.235Z,32.28
2019-02-26T12:50:01.650Z,32.72
2019-02-26T12:51:05.333Z,33.10
2019-02-26T12:52:10.353Z,32.95
2019-02-26T12:53:18.107Z,32.59
2019-02-26T12:54:22.208Z,33.57
2019-02-26T12:55:31.658Z,33.25
2019-02-26T12:56:37.344Z,33.78
2019-02-26T12:57:40.097Z,33.70
2019-02-26T12:58:48.342Z,33.35
2019-02-26T12:59:52.052Z,33.79
2019-02-26T13:00:57.979Z,32.91
2019-02-26T13:02:05.681Z,32.77
2019-02-26T13:03:12.744Z,32.78
2019-02-26T13:04:19.579Z,32.96
2019-02-26T13:05:23.054Z,33.35
2019-02-26T13:06:27.601Z,34.17
2019-02-26T13:07:33.509Z,32.80
2019-02-26T13:08:39.786Z,32.69
2019-02-26T13:09:50.503Z,32.29
2019-02-26T13:10:55.478Z,32.66
2019-02-26T13:12:02.582Z,32.30
2019-02-26T13:13:07.443Z,33.31
2019-02-26T13:14:09.309Z,32.87
2019-02-26T13:15:19.043Z,33.31
2019-02-26T13:16:20.923Z,33.60
2019-02-26T13:17:28.728Z,33.29
2019-02-26T13:18:32.801Z,32.84
2019-02-26T13:19:39.337Z,32.71
2019-02-26T13:20:44.719Z,32.33
2019-02-26T13:21:51.799Z,32.62
2019-02-26T13:23:16.411Z,33.25
2019-02-26T13:24:11.653Z,32.09
2019-02-26T13:25:15.104Z,30.99
2019-02-26T13:26:19.591Z,31.42
2019-02-26T13:27:20.913Z,31.95
2019-02-26T13:28:29.547Z,33.04
2019-02-26T13:29:32.764Z,32.78
2019-02-26T13:30:38.698Z,32.72
2019-02-26T13:31:53.476Z,31.18
2019-02-26T13:32:56.031Z,31.09
2019-02-26T13:33:56.605Z,31.94
2019-02-26T13:35:07.433Z,31.38
2019-02-26T13:36:07.788Z,30.06
2019-02-26T13:37:13.672Z,29.99
2019-02-26T13:38:24.305Z,30.17
2019-02-26T13:39:29.969Z,29.62
2019-02-26T13:40:37.953Z,29.15
2019-02-26T13:41:38.909Z,29.91
2019-02-26T13:42:42.418Z,30.51
2019-02-26T13:43:48.302Z,29.17
2019-02-26T13:44:54.496Z,28.77
2019-02-26T13:46:00.402Z,29.48
2019-02-26T13:47:05.362Z,28.23
2019-02-26T13:48:11.115Z,27.56
2019-02-26T13:49:17.052Z,28.40
2019-02-26T13:50:24.718Z,27.88
2019-02-26T13:51:30.643Z,28.30
2019-02-26T13:52:36.584Z,29.25
2019-02-26T13:53:42.524Z,28.48
2019-02-26T13:54:48.464Z,27.97
2019-02-26T13:55:54.414Z,28.42
2019-02-26T13:57:00.317Z,28.55
2019-02-26T13:58:11.678Z,29.15
2019-02-26T13:59:11.613Z,28.43
2019-02-26T14:00:23.566Z,27.68
2019-02-26T14:01:22.816Z,28.02
2019-02-26T14:02:28.775Z,28.45
2019-02-26T14:03:34.676Z,27.79
2019-02-26T14:04:40.592Z,27.05
2019-02-26T14:05:47.319Z,27.10
2019-02-26T14:06:53.617Z,26.31
2019-02-26T14:07:59.537Z,25.58
2019-02-26T14:09:05.120Z,26.17
2019-02-26T14:10:13.843Z,26.38
2019-02-26T14:11:19.809Z,27.38
2019-02-26T14:12:25.768Z,27.09
2019-02-26T14:13:31.675Z,28.01
2019-02-26T14:14:37.625Z,28.09
2019-02-26T14:15:42.897Z,27.23
2019-02-26T14:16:48.862Z,27.37
2019-02-26T14:17:54.066Z,25.92
2019-02-26T14:19:00.011Z,26.37
2019-02-26T14:20:05.332Z,26.29